Time;durP1;ratioP1;P1;durP2;ratioP2;P2;SDS_P1;SDS_P2;PMS_P1;PMS_P2;Temp;Humidity;BMP_temperature;BMP_pressure;BME280_temperature;BME280_humidity;BME280_pressure;Samples;Min_cycle;Max_cycle;Signal;HPM_P1;HPM_P2
2022/10/18 00:00:56;;;;;;;12.50;9.88;;;13.70;99.90;;;;;;4974665;28;20038;-72
2022/10/18 00:03:22;;;;;;;12.13;9.98;;;13.60;99.90;;;;;;4994361;28;20038;-73
2022/10/18 00:05:48;;;;;;;12.70;9.88;;;13.50;99.90;;;;;;4979272;28;20046;-73
2022/10/18 00:08:15;;;;;;;15.07;10.88;;;13.50;99.90;;;;;;4995133;28;20049;-72
2022/10/18 00:10:41;;;;;;;12.00;10.05;;;13.50;99.90;;;;;;4978472;28;20404;-72
2022/10/18 00:13:07;;;;;;;14.32;10.70;;;13.60;99.90;;;;;;4978808;28;20043;-72
2022/10/18 00:15:33;;;;;;;12.32;10.52;;;13.50;99.90;;;;;;4995266;28;20404;-72
2022/10/18 00:17:59;;;;;;;14.00;10.75;;;13.50;99.90;;;;;;4994957;28;20105;-73
2022/10/18 00:20:25;;;;;;;14.55;11.30;;;13.60;99.90;;;;;;4994014;28;20042;-73
2022/10/18 00:22:50;;;;;;;16.02;11.48;;;13.60;99.90;;;;;;4977342;28;20042;-73
2022/10/18 00:25:16;;;;;;;15.10;11.65;;;13.60;99.90;;;;;;4978638;28;20041;-73
2022/10/18 00:27:42;;;;;;;15.80;12.15;;;13.60;99.90;;;;;;4994824;28;20038;-73
2022/10/18 00:30:08;;;;;;;16.77;11.70;;;13.60;99.90;;;;;;4978865;28;20093;-72
2022/10/18 00:32:40;;;;;;;15.43;11.38;;;13.50;99.90;;;;;;4977786;28;20042;-72
2022/10/18 00:35:07;;;;;;;17.77;11.88;;;13.50;99.90;;;;;;4978466;28;20042;-72
2022/10/18 00:37:33;;;;;;;15.52;12.57;;;13.50;99.90;;;;;;4994586;28;20038;-72
2022/10/18 00:39:59;;;;;;;15.55;12.30;;;13.50;99.90;;;;;;4993123;28;20049;-73
2022/10/18 00:42:34;;;;;;;16.27;12.65;;;13.50;99.90;;;;;;4976719;28;20042;-72
2022/10/18 00:45:18;;;;;;;15.00;11.43;;;13.50;99.90;;;;;;4978331;28;20504;-72
2022/10/18 00:47:48;;;;;;;16.45;11.88;;;13.50;99.90;;;;;;4977797;28;20038;-71
2022/10/18 00:50:14;;;;;;;15.07;11.73;;;13.40;99.90;;;;;;4993902;28;20389;-72
2022/10/18 00:52:44;;;;;;;14.95;11.93;;;13.40;99.90;;;;;;4993592;28;20194;-72
2022/10/18 00:55:10;;;;;;;15.13;11.75;;;13.40;99.90;;;;;;4993590;28;20110;-72
2022/10/18 00:57:38;;;;;;;15.50;10.93;;;13.40;99.90;;;;;;4993023;28;20050;-72
2022/10/18 01:00:08;;;;;;;13.68;11.25;;;13.30;99.90;;;;;;5022308;28;20054;-72
2022/10/18 01:02:38;;;;;;;14.52;11.25;;;13.30;99.90;;;;;;4977202;28;20153;-72
2022/10/18 01:05:05;;;;;;;13.80;11.40;;;13.30;99.90;;;;;;4993156;28;20480;-72
2022/10/18 01:07:48;;;;;;;14.90;11.10;;;13.30;99.90;;;;;;4976395;28;20061;-72
2022/10/18 01:10:27;;;;;;;14.95;10.65;;;13.30;99.90;;;;;;4993230;28;20042;-72
2022/10/18 01:13:12;;;;;;;16.77;12.05;;;13.30;99.90;;;;;;4976846;28;20133;-71
2022/10/18 01:15:59;;;;;;;15.38;12.02;;;13.40;99.90;;;;;;4976951;28;20508;-71
2022/10/18 01:18:53;;;;;;;15.75;12.20;;;13.40;99.90;;;;;;4993878;28;20047;-72
2022/10/18 01:21:35;;;;;;;13.85;11.40;;;13.40;99.90;;;;;;4963881;28;20085;-71
2022/10/18 01:24:23;;;;;;;14.43;11.38;;;13.40;99.90;;;;;;4974330;28;20093;-72
2022/10/18 01:27:35;;;;;;;15.85;12.15;;;13.40;99.90;;;;;;4986669;28;20045;-71
2022/10/18 01:30:38;;;;;;;13.95;11.68;;;13.40;99.90;;;;;;4973845;28;20053;-72
2022/10/18 01:33:20;;;;;;;14.15;11.43;;;13.40;99.90;;;;;;5009815;28;20077;-72
2022/10/18 01:35:52;;;;;;;;;;;13.50;99.90;;;;;;4992168;28;20125;-72
2022/10/18 01:38:19;;;;;;;14.93;11.40;;;13.40;99.90;;;;;;4976506;28;20004;-71
2022/10/18 01:40:47;;;;;;;14.35;11.25;;;13.40;99.90;;;;;;4992853;28;20554;-72
2022/10/18 01:43:15;;;;;;;14.95;11.10;;;13.40;99.90;;;;;;4977140;28;20047;-72
2022/10/18 01:45:41;;;;;;;12.57;10.35;;;13.40;99.90;;;;;;4992907;28;20088;-72
2022/10/18 01:48:09;;;;;;;13.30;10.35;;;13.30;99.90;;;;;;4992525;28;20038;-72
2022/10/18 01:50:34;;;;;;;11.98;9.70;;;13.40;99.90;;;;;;4991615;28;20035;-71
2022/10/18 01:53:01;;;;;;;12.25;10.10;;;13.30;99.90;;;;;;4993222;28;20499;-72
2022/10/18 01:55:42;;;;;;;13.30;10.25;;;13.30;99.90;;;;;;5008763;28;20057;-72
2022/10/18 01:58:25;;;;;;;10.93;9.20;;;13.30;99.90;;;;;;4975224;28;20054;-72
2022/10/18 02:01:03;;;;;;;13.05;9.00;;;13.30;99.90;;;;;;4992103;28;20053;-72
2022/10/18 02:03:29;;;;;;;10.30;8.50;;;13.30;99.90;;;;;;5009246;28;20077;-72
2022/10/18 02:06:17;;;;;;;9.45;7.40;;;13.20;99.90;;;;;;5008608;28;20070;-73
2022/10/18 02:08:51;;;;;;;10.40;8.05;;;13.20;99.90;;;;;;4993003;28;20074;-72
2022/10/18 02:11:17;;;;;;;11.57;8.73;;;13.20;99.90;;;;;;4990309;28;21349;-72
2022/10/18 02:14:12;;;;;;;11.30;8.13;;;13.20;99.90;;;;;;4980957;28;20043;-72
2022/10/18 02:16:44;;;;;;;10.90;8.10;;;13.10;99.90;;;;;;4987789;28;20407;-72
2022/10/18 02:19:19;;;;;;;11.65;8.15;;;13.10;99.90;;;;;;4992794;28;20042;-72
2022/10/18 02:21:47;;;;;;;11.20;8.65;;;13.20;99.90;;;;;;4975353;28;20050;-72
2022/10/18 02:24:14;;;;;;;9.75;7.88;;;13.10;99.90;;;;;;4975933;28;20476;-72
2022/10/18 02:26:39;;;;;;;10.70;8.20;;;13.10;99.90;;;;;;4992926;28;20393;-72
2022/10/18 02:29:06;;;;;;;12.93;8.13;;;13.10;99.90;;;;;;4975580;28;20034;-72
2022/10/18 02:31:34;;;;;;;11.25;8.02;;;13.00;99.90;;;;;;4976486;28;20117;-71
2022/10/18 02:34:25;;;;;;;11.10;8.30;;;13.10;99.90;;;;;;4973670;28;20038;-71
2022/10/18 02:36:54;;;;;;;13.38;9.50;;;13.00;99.90;;;;;;4992633;28;20104;-72
2022/10/18 02:39:23;;;;;;;11.18;9.20;;;13.00;99.90;;;;;;5024631;28;20042;-72
2022/10/18 02:41:49;;;;;;;9.88;7.85;;;13.00;99.90;;;;;;5007860;28;20038;-72
2022/10/18 02:44:15;;;;;;;9.88;7.93;;;13.00;99.90;;;;;;4991578;28;20613;-72
2022/10/18 02:46:41;;;;;;;11.10;8.07;;;13.00;99.90;;;;;;4991760;28;20030;-72
2022/10/18 02:49:06;;;;;;;16.77;7.97;;;13.00;99.90;;;;;;4972806;28;20122;-72
2022/10/18 02:51:32;;;;;;;12.23;9.88;;;13.00;99.90;;;;;;4984180;28;20034;-72
2022/10/18 02:53:58;;;;;;;10.07;8.07;;;13.00;99.90;;;;;;4992262;28;20090;-71
2022/10/18 02:56:23;;;;;;;11.57;8.80;;;12.90;99.90;;;;;;5024121;28;20050;-72
2022/10/18 02:58:49;;;;;;;10.57;8.70;;;12.90;99.90;;;;;;4992209;28;20058;-72
2022/10/18 03:01:14;;;;;;;10.77;8.55;;;12.90;99.90;;;;;;5007995;28;20038;-72
2022/10/18 03:03:40;;;;;;;11.73;8.30;;;12.90;99.90;;;;;;4992220;28;20050;-72
2022/10/18 03:06:05;;;;;;;12.73;10.18;;;12.90;99.90;;;;;;4991409;28;20043;-72
2022/10/18 03:08:31;;;;;;;11.75;9.55;;;13.00;99.90;;;;;;5025284;28;20040;-72
2022/10/18 03:10:57;;;;;;;11.63;9.63;;;13.00;99.90;;;;;;4975369;28;20096;-72
2022/10/18 03:13:22;;;;;;;11.93;9.82;;;13.00;99.90;;;;;;5012679;28;20509;-72
2022/10/18 03:15:48;;;;;;;11.95;10.18;;;13.00;99.90;;;;;;5023777;28;20467;-73
2022/10/18 03:18:14;;;;;;;15.07;10.65;;;13.10;99.90;;;;;;5008656;28;20053;-72
2022/10/18 03:20:40;;;;;;;12.13;9.60;;;13.00;99.90;;;;;;4991673;28;20408;-72
2022/10/18 03:23:06;;;;;;;14.40;10.25;;;13.00;99.90;;;;;;4992072;28;20039;-72
2022/10/18 03:25:33;;;;;;;13.20;9.90;;;13.10;99.90;;;;;;4974896;28;20041;-72
2022/10/18 03:27:58;;;;;;;12.65;10.15;;;13.10;99.90;;;;;;4994160;28;20049;-72
2022/10/18 03:30:24;;;;;;;11.10;9.70;;;13.10;99.90;;;;;;5027865;28;20408;-72
2022/10/18 03:32:50;;;;;;;11.63;9.70;;;13.00;99.90;;;;;;4995828;28;20046;-72
2022/10/18 03:35:15;;;;;;;12.65;10.27;;;13.00;99.90;;;;;;4994879;28;20042;-72
2022/10/18 03:37:41;;;;;;;13.88;11.02;;;13.00;99.90;;;;;;4995759;28;20038;-73
2022/10/18 03:40:07;;;;;;;12.52;11.23;;;13.10;99.90;;;;;;4994780;28;20061;-72
2022/10/18 03:42:33;;;;;;;12.60;11.30;;;13.00;99.90;;;;;;4979580;28;20412;-72
2022/10/18 03:44:59;;;;;;;12.55;10.75;;;13.00;99.90;;;;;;4978150;28;20034;-72
2022/10/18 03:47:24;;;;;;;12.43;10.30;;;13.10;99.90;;;;;;5011772;28;20030;-72
2022/10/18 03:49:50;;;;;;;12.18;10.13;;;13.10;99.90;;;;;;5027680;28;20448;-71
2022/10/18 03:52:15;;;;;;;20.02;11.48;;;13.10;99.90;;;;;;4977681;28;20519;-72
2022/10/18 03:54:41;;;;;;;15.40;11.13;;;13.10;99.90;;;;;;4977304;28;20046;-72
2022/10/18 03:57:06;;;;;;;14.52;11.35;;;13.00;99.90;;;;;;4994622;28;20074;-72
2022/10/18 03:59:32;;;;;;;12.48;10.25;;;13.00;99.90;;;;;;4977378;28;20065;-72
2022/10/18 04:01:57;;;;;;;14.43;10.10;;;13.00;99.90;;;;;;4976415;28;20086;-72
2022/10/18 04:04:23;;;;;;;12.30;11.00;;;13.00;99.90;;;;;;4962934;28;20046;-72
2022/10/18 04:06:49;;;;;;;14.57;11.77;;;13.10;99.90;;;;;;4993529;28;20046;-72
2022/10/18 04:09:14;;;;;;;16.50;11.57;;;13.10;99.90;;;;;;4978317;28;20046;-72
2022/10/18 04:11:40;;;;;;;13.88;11.25;;;13.10;99.90;;;;;;4976845;28;20042;-72
2022/10/18 04:14:06;;;;;;;13.18;10.77;;;13.10;99.90;;;;;;4994310;28;20130;-72
2022/10/18 04:16:31;;;;;;;15.25;11.65;;;13.00;99.90;;;;;;4989779;28;20062;-72
2022/10/18 04:18:57;;;;;;;15.00;12.10;;;13.00;99.90;;;;;;4976475;28;20117;-72
2022/10/18 04:21:22;;;;;;;15.10;12.05;;;13.10;99.90;;;;;;5007570;28;20046;-72
2022/10/18 04:23:49;;;;;;;15.80;11.80;;;13.10;99.90;;;;;;4992020;28;20038;-72
2022/10/18 04:26:15;;;;;;;15.48;12.00;;;13.20;99.90;;;;;;4976165;28;20038;-72
2022/10/18 04:28:41;;;;;;;15.85;12.75;;;13.20;99.90;;;;;;4990424;28;20456;-72
2022/10/18 04:31:08;;;;;;;15.52;12.32;;;13.20;99.90;;;;;;4994287;28;20088;-73
2022/10/18 04:33:34;;;;;;;15.48;12.23;;;13.20;99.90;;;;;;4989965;28;20046;-72
2022/10/18 04:35:59;;;;;;;15.98;11.95;;;13.20;99.90;;;;;;5019580;28;20184;-72
2022/10/18 04:38:25;;;;;;;15.45;11.18;;;13.20;99.90;;;;;;5008821;28;20034;-73
2022/10/18 04:40:50;;;;;;;18.40;11.48;;;13.10;99.90;;;;;;4993899;28;20039;-73
2022/10/18 04:43:16;;;;;;;22.23;11.60;;;13.10;99.90;;;;;;4993849;28;20122;-72
2022/10/18 04:45:44;;;;;;;13.70;10.90;;;13.10;99.90;;;;;;4994342;28;20042;-73
2022/10/18 04:48:10;;;;;;;16.63;10.85;;;13.10;99.90;;;;;;4978261;28;20125;-72
2022/10/18 04:50:35;;;;;;;15.95;10.90;;;13.10;99.90;;;;;;4993726;28;20125;-73
2022/10/18 04:53:01;;;;;;;13.02;9.60;;;13.10;99.90;;;;;;4986550;28;20177;-72
2022/10/18 04:55:26;;;;;;;14.23;9.68;;;13.10;99.90;;;;;;5027315;28;20042;-73
2022/10/18 04:57:52;;;;;;;15.05;10.35;;;13.10;99.90;;;;;;5025105;28;20062;-73
2022/10/18 05:00:18;;;;;;;15.65;9.88;;;13.10;99.90;;;;;;4977436;28;20046;-73
2022/10/18 05:02:44;;;;;;;12.85;9.27;;;13.00;99.90;;;;;;4994333;28;20057;-72
2022/10/18 05:05:10;;;;;;;13.30;9.35;;;13.00;99.90;;;;;;4993447;28;20053;-73
2022/10/18 05:07:36;;;;;;;15.85;9.32;;;13.00;99.90;;;;;;4994111;28;20420;-73
2022/10/18 05:10:03;;;;;;;14.00;9.52;;;13.10;99.90;;;;;;4976736;28;20113;-72
2022/10/18 05:12:28;;;;;;;14.82;9.40;;;13.10;99.90;;;;;;5027002;28;20443;-73
2022/10/18 05:14:54;;;;;;;13.98;9.90;;;13.10;99.90;;;;;;5023964;28;20042;-73
2022/10/18 05:17:19;;;;;;;18.52;10.30;;;13.10;99.90;;;;;;4993928;28;20458;-73
2022/10/18 05:19:45;;;;;;;14.75;9.80;;;13.10;99.90;;;;;;4993194;28;20416;-73
2022/10/18 05:22:10;;;;;;;12.43;9.13;;;13.10;99.90;;;;;;4993021;28;20097;-73
2022/10/18 05:24:36;;;;;;;14.45;9.85;;;13.10;99.90;;;;;;5004682;28;20117;-73
2022/10/18 05:27:01;;;;;;;13.05;9.70;;;13.10;99.90;;;;;;4982369;28;20042;-73
2022/10/18 05:29:27;;;;;;;16.23;10.30;;;13.10;99.90;;;;;;4992221;28;20035;-73
2022/10/18 05:31:53;;;;;;;16.98;10.63;;;13.10;99.90;;;;;;5013856;28;20034;-73
2022/10/18 05:34:19;;;;;;;14.30;9.82;;;13.10;99.90;;;;;;4989244;28;20404;-73
2022/10/18 05:36:46;;;;;;;15.32;11.02;;;13.10;99.90;;;;;;4991861;28;20077;-73
2022/10/18 05:39:11;;;;;;;19.30;11.07;;;13.10;99.90;;;;;;4991683;28;20027;-73
2022/10/18 05:41:37;;;;;;;19.20;11.05;;;13.10;99.90;;;;;;4976569;28;20512;-73
2022/10/18 05:44:03;;;;;;;14.00;10.00;;;12.90;99.90;;;;;;4976148;28;20508;-73
2022/10/18 05:46:29;;;;;;;16.00;10.55;;;13.00;99.90;;;;;;4998661;28;20046;-73
2022/10/18 05:48:55;;;;;;;20.27;10.55;;;12.90;99.90;;;;;;4989754;28;20042;-73
2022/10/18 05:51:20;;;;;;;17.13;10.77;;;12.90;99.90;;;;;;4979628;28;20074;-73
2022/10/18 05:53:46;;;;;;;14.77;9.48;;;12.90;99.90;;;;;;4992580;28;20054;-72
2022/10/18 05:56:13;;;;;;;15.25;10.27;;;12.90;99.90;;;;;;4982723;28;20096;-73
2022/10/18 05:58:39;;;;;;;13.65;10.10;;;12.90;99.90;;;;;;4991338;28;20058;-72
2022/10/18 06:01:05;;;;;;;14.68;10.02;;;12.90;99.90;;;;;;4976548;28;20077;-73
2022/10/18 06:03:31;;;;;;;15.38;10.35;;;12.90;99.90;;;;;;4989766;28;20093;-72
2022/10/18 06:06:08;;;;;;;13.05;10.07;;;12.80;99.90;;;;;;4976215;28;20504;-72
2022/10/18 06:08:35;;;;;;;13.50;10.10;;;12.80;99.90;;;;;;4977162;28;20039;-72
2022/10/18 06:11:13;;;;;;;13.95;10.88;;;12.80;99.90;;;;;;4993513;28;20401;-72
2022/10/18 06:13:43;;;;;;;19.05;9.40;;;12.80;99.90;;;;;;4976056;28;20042;-72
2022/10/18 06:16:09;;;;;;;13.18;9.60;;;12.80;99.90;;;;;;4990418;28;20037;-72
2022/10/18 06:18:35;;;;;;;12.38;9.27;;;12.80;99.90;;;;;;4986981;28;20084;-72
2022/10/18 06:21:00;;;;;;;12.95;8.98;;;12.90;99.90;;;;;;4975098;28;20042;-72
2022/10/18 06:23:26;;;;;;;11.80;8.82;;;12.80;99.90;;;;;;4991109;28;20046;-72
2022/10/18 06:25:52;;;;;;;13.13;9.45;;;12.80;99.90;;;;;;4991219;28;20049;-72
2022/10/18 06:28:18;;;;;;;13.60;9.38;;;12.80;99.90;;;;;;4989370;28;20034;-72
2022/10/18 06:30:43;;;;;;;13.13;9.02;;;12.80;99.90;;;;;;5024024;28;20088;-72
2022/10/18 06:33:10;;;;;;;12.50;8.70;;;12.80;99.90;;;;;;5008271;28;20089;-72
2022/10/18 06:35:36;;;;;;;11.52;8.50;;;12.90;99.90;;;;;;4990293;28;20439;-72
2022/10/18 06:38:02;;;;;;;10.30;8.10;;;12.90;99.90;;;;;;5008019;28;20038;-72
2022/10/18 06:40:29;;;;;;;10.70;8.48;;;12.80;99.90;;;;;;4992422;28;20046;-72
2022/10/18 06:42:55;;;;;;;11.10;8.57;;;12.80;99.90;;;;;;4991349;28;20459;-72
2022/10/18 06:45:21;;;;;;;10.68;8.07;;;12.80;99.90;;;;;;4991179;28;20096;-72
2022/10/18 06:47:46;;;;;;;12.27;7.45;;;12.80;99.90;;;;;;4975720;28;20034;-72
2022/10/18 06:50:12;;;;;;;10.60;8.10;;;12.70;99.90;;;;;;4976227;28;20046;-72
2022/10/18 06:52:37;;;;;;;16.42;7.65;;;12.70;99.90;;;;;;4991233;28;20042;-72
2022/10/18 06:55:03;;;;;;;13.02;7.15;;;12.70;99.90;;;;;;4988702;28;20508;-72
2022/10/18 06:57:29;;;;;;;8.65;6.85;;;12.60;99.90;;;;;;4991812;28;20455;-72
2022/10/18 06:59:54;;;;;;;8.18;6.65;;;12.50;99.90;;;;;;5008336;28;20042;-72
2022/10/18 07:02:20;;;;;;;8.48;4.70;;;12.50;99.90;;;;;;4992239;28;20038;-78
2022/10/18 07:04:46;;;;;;;7.10;4.63;;;12.50;99.90;;;;;;4984208;28;20092;-72
2022/10/18 07:07:11;;;;;;;9.60;7.07;;;12.60;99.90;;;;;;5012517;28;20048;-72
2022/10/18 07:09:37;;;;;;;8.70;6.82;;;12.60;99.90;;;;;;4995235;28;20500;-72
2022/10/18 07:12:03;;;;;;;10.82;6.50;;;12.70;99.90;;;;;;4995158;28;20042;-71
2022/10/18 07:14:28;;;;;;;11.23;6.63;;;12.70;99.90;;;;;;4994120;28;20088;-77
2022/10/18 07:16:54;;;;;;;9.43;6.38;;;12.70;99.90;;;;;;4996304;28;20109;-72
2022/10/18 07:19:19;;;;;;;9.10;6.32;;;12.70;99.90;;;;;;4995841;28;20040;-72
2022/10/18 07:21:45;;;;;;;8.60;6.68;;;12.80;99.90;;;;;;4993440;28;20128;-72
2022/10/18 07:24:10;;;;;;;12.32;6.47;;;12.70;99.90;;;;;;4995138;28;20041;-72
2022/10/18 07:26:36;;;;;;;10.82;6.53;;;12.60;99.90;;;;;;4979315;28;20121;-72
2022/10/18 07:29:06;;;;;;;9.82;6.93;;;12.50;99.90;;;;;;4994352;28;20038;-72
2022/10/18 07:31:32;;;;;;;9.68;6.75;;;12.50;99.90;;;;;;4994806;28;20042;-72
2022/10/18 07:33:58;;;;;;;9.85;6.18;;;12.60;99.90;;;;;;4995809;28;20053;-72
2022/10/18 07:36:24;;;;;;;11.60;6.35;;;12.60;99.90;;;;;;5010364;28;20046;-72
2022/10/18 07:38:53;;;;;;;13.43;6.07;;;12.40;99.90;;;;;;5025885;28;20046;-72
2022/10/18 07:41:20;;;;;;;9.38;6.30;;;12.40;99.90;;;;;;5021041;28;20046;-72
2022/10/18 07:43:47;;;;;;;8.32;5.97;;;12.50;99.90;;;;;;4995700;28;20404;-72
2022/10/18 07:46:14;;;;;;;12.52;6.53;;;12.50;99.90;;;;;;4984491;28;20038;-72
2022/10/18 07:48:40;;;;;;;10.18;6.20;;;12.60;99.90;;;;;;4978011;28;20088;-72
2022/10/18 07:51:06;;;;;;;9.35;6.18;;;12.40;99.90;;;;;;4993799;28;20125;-72
2022/10/18 07:53:33;;;;;;;9.50;6.72;;;12.40;99.90;;;;;;4993872;28;20404;-72
2022/10/18 07:56:00;;;;;;;12.20;6.80;;;12.50;99.90;;;;;;4977778;28;20401;-72
2022/10/18 07:58:26;;;;;;;18.38;7.65;;;12.50;99.90;;;;;;5010890;28;20125;-72
2022/10/18 08:00:51;;;;;;;10.50;7.07;;;12.40;99.90;;;;;;5003606;28;20917;-72
2022/10/18 08:03:17;;;;;;;8.55;6.47;;;12.40;99.90;;;;;;5008170;28;20064;-72
2022/10/18 08:05:43;;;;;;;14.48;7.90;;;12.50;99.90;;;;;;5006590;28;20060;-72
2022/10/18 08:08:08;;;;;;;10.75;7.20;;;12.60;99.90;;;;;;4994335;28;20053;-72
2022/10/18 08:10:35;;;;;;;10.35;6.97;;;12.60;99.90;;;;;;4994845;28;20208;-72
2022/10/18 08:13:00;;;;;;;12.20;7.32;;;12.60;99.90;;;;;;4978522;28;20449;-72
2022/10/18 08:15:26;;;;;;;12.60;7.53;;;12.60;99.90;;;;;;4994068;28;20038;-72
2022/10/18 08:17:51;;;;;;;11.95;7.22;;;12.70;99.90;;;;;;4988668;28;20100;-72
2022/10/18 08:20:17;;;;;;;12.15;7.70;;;12.60;99.90;;;;;;4963271;28;20407;-75
2022/10/18 08:22:43;;;;;;;12.30;8.13;;;12.50;99.90;;;;;;5008464;28;20049;-84
2022/10/18 08:25:09;;;;;;;12.38;7.15;;;12.50;99.90;;;;;;5011641;28;20038;-74
2022/10/18 08:27:34;;;;;;;12.15;7.93;;;12.50;99.90;;;;;;5011400;28;20030;-76
2022/10/18 08:30:01;;;;;;;10.38;7.85;;;12.50;99.90;;;;;;4994793;28;20538;-76
2022/10/18 08:32:27;;;;;;;11.77;7.97;;;12.40;99.90;;;;;;5009164;28;20038;-76
2022/10/18 08:34:53;;;;;;;12.20;7.60;;;12.50;99.90;;;;;;5007791;28;20047;-76
2022/10/18 08:37:19;;;;;;;11.52;7.78;;;12.60;99.90;;;;;;4979957;28;20497;-76
2022/10/18 08:39:44;;;;;;;12.55;7.85;;;12.70;99.90;;;;;;4974520;28;20102;-76
2022/10/18 08:42:46;;;;;;;12.80;8.48;;;12.70;99.90;;;;;;5020806;28;20046;-76
2022/10/18 08:45:13;;;;;;;11.93;7.43;;;12.80;99.90;;;;;;4993559;28;20077;-76
2022/10/18 08:47:44;;;;;;;12.60;8.00;;;12.90;99.90;;;;;;4994054;28;20100;-76
2022/10/18 08:50:17;;;;;;;12.60;7.97;;;12.90;99.90;;;;;;5010793;28;20038;-76
2022/10/18 08:52:52;;;;;;;14.27;8.20;;;12.90;99.90;;;;;;5026755;28;20050;-76
2022/10/18 08:55:21;;;;;;;14.18;7.15;;;13.00;99.90;;;;;;4993110;28;20046;-76
2022/10/18 08:57:48;;;;;;;94.03;26.33;;;13.10;99.90;;;;;;4999529;28;20050;-75
2022/10/18 09:00:16;;;;;;;48.58;17.30;;;13.30;99.90;;;;;;4977775;28;20073;-76
2022/10/18 09:03:19;;;;;;;20.52;9.95;;;13.50;99.90;;;;;;4977478;28;20038;-76
2022/10/18 09:06:04;;;;;;;;;;;13.50;99.90;;;;;;4993109;28;20046;-75
2022/10/18 09:09:01;;;;;;;9.75;5.00;;;13.60;99.90;;;;;;4977436;28;19925;-75
2022/10/18 09:11:43;;;;;;;11.20;4.78;;;13.70;99.90;;;;;;5009417;28;20048;-75
2022/10/18 09:14:28;;;;;;;;;;;13.70;99.90;;;;;;4994312;28;20049;-76
2022/10/18 09:16:53;;;;;;;10.23;3.97;;;13.70;99.90;;;;;;5025743;28;20442;-76
2022/10/18 09:19:39;;;;;;;12.18;4.57;;;13.70;99.90;;;;;;5009365;28;20129;-84
2022/10/18 09:22:54;;;;;;;10.43;4.10;;;13.70;99.90;;;;;;4975955;28;20042;-75
2022/10/18 09:25:21;;;;;;;9.25;3.70;;;13.80;99.90;;;;;;4976703;28;20053;-75
2022/10/18 09:28:02;;;;;;;12.65;4.00;;;13.80;99.90;;;;;;4991899;28;20500;-75
2022/10/18 09:30:53;;;;;;;13.90;4.03;;;13.90;99.90;;;;;;5010286;28;20042;-75
2022/10/18 09:33:24;;;;;;;11.68;4.25;;;13.90;99.90;;;;;;5008454;28;20439;-76
2022/10/18 09:35:57;;;;;;;12.73;4.37;;;13.90;99.90;;;;;;4988933;28;20044;-75
2022/10/18 09:38:29;;;;;;;10.50;4.40;;;14.00;99.90;;;;;;4973981;28;20286;-75
2022/10/18 09:41:06;;;;;;;11.13;4.40;;;14.00;99.90;;;;;;5006822;28;20046;-75
2022/10/18 09:44:01;;;;;;;12.23;3.95;;;14.10;99.90;;;;;;4990261;28;20046;-75
2022/10/18 09:46:32;;;;;;;10.45;4.65;;;14.20;99.90;;;;;;4997572;28;20042;-75
2022/10/18 09:49:06;;;;;;;13.25;4.22;;;14.40;99.90;;;;;;5008576;28;20043;-75
2022/10/18 09:51:40;;;;;;;11.43;3.90;;;14.50;99.90;;;;;;4992953;28;20382;-75
2022/10/18 09:54:29;;;;;;;12.68;4.38;;;14.50;99.90;;;;;;4979233;28;20042;-75
2022/10/18 09:57:08;;;;;;;14.30;4.50;;;14.60;99.90;;;;;;5015867;28;20081;-75
2022/10/18 09:59:44;;;;;;;15.27;4.63;;;14.60;99.90;;;;;;4978406;28;20062;-75
2022/10/18 10:02:15;;;;;;;12.88;3.85;;;14.60;99.90;;;;;;4976506;28;20100;-75
2022/10/18 10:04:41;;;;;;;12.57;3.67;;;14.70;99.90;;;;;;4986494;28;20085;-75
2022/10/18 10:07:12;;;;;;;9.70;3.00;;;14.70;99.90;;;;;;4991317;28;21226;-75
2022/10/18 10:09:56;;;;;;;13.82;3.08;;;14.70;99.90;;;;;;4987978;28;20054;-75
2022/10/18 10:12:35;;;;;;;11.60;2.75;;;14.80;99.90;;;;;;5005815;28;20052;-76
2022/10/18 10:15:22;;;;;;;10.25;2.38;;;14.80;99.90;;;;;;4971803;28;20038;-76
2022/10/18 10:18:19;;;;;;;13.38;2.42;;;15.00;99.90;;;;;;4990532;28;20046;-75
2022/10/18 10:20:49;;;;;;;14.52;2.83;;;15.00;99.90;;;;;;4975550;28;20116;-75
2022/10/18 10:23:30;;;;;;;18.23;2.60;;;14.80;99.90;;;;;;4992681;28;20055;-75
2022/10/18 10:26:06;;;;;;;10.50;2.05;;;14.90;99.90;;;;;;4992805;28;20125;-75
2022/10/18 10:28:39;;;;;;;9.65;1.98;;;15.00;99.90;;;;;;4975537;28;20042;-74
2022/10/18 10:31:23;;;;;;;11.05;1.92;;;15.00;99.90;;;;;;4995991;28;20039;-75
2022/10/18 10:34:04;;;;;;;14.63;2.42;;;15.00;99.90;;;;;;4986574;28;20512;-75
2022/10/18 10:36:30;;;;;;;11.23;2.05;;;15.00;99.90;;;;;;4976294;28;20082;-75
2022/10/18 10:39:06;;;;;;;10.15;2.30;;;14.90;99.90;;;;;;5025356;28;20125;-75
2022/10/18 10:41:32;;;;;;;9.70;2.00;;;14.90;99.90;;;;;;4976426;28;20053;-75
2022/10/18 10:44:00;;;;;;;12.38;2.55;;;14.90;99.90;;;;;;4992353;28;20552;-74
2022/10/18 10:46:33;;;;;;;10.60;1.88;;;14.90;99.90;;;;;;4991962;28;20084;-75
2022/10/18 10:48:59;;;;;;;10.85;1.85;;;15.00;99.90;;;;;;4964014;28;20113;-75
2022/10/18 10:51:32;;;;;;;11.05;2.30;;;15.00;99.90;;;;;;4973330;28;20088;-75
2022/10/18 10:54:16;;;;;;;9.25;1.98;;;14.90;99.90;;;;;;4989235;28;20501;-75
2022/10/18 10:57:02;;;;;;;10.82;2.03;;;15.00;99.90;;;;;;4989297;28;20049;-75
2022/10/18 10:59:43;;;;;;;8.52;1.80;;;14.90;99.90;;;;;;4988960;28;20055;-75
2022/10/18 11:02:17;;;;;;;10.80;1.77;;;15.00;99.90;;;;;;4972971;28;20051;-75
2022/10/18 11:04:49;;;;;;;8.88;2.05;;;15.10;99.90;;;;;;4987802;28;20475;-75
2022/10/18 11:07:14;;;;;;;14.32;2.13;;;14.90;99.90;;;;;;4972904;28;20073;-75
2022/10/18 11:09:49;;;;;;;9.35;2.03;;;15.00;99.90;;;;;;4956964;28;20082;-75
2022/10/18 11:12:33;;;;;;;8.70;1.50;;;15.00;99.90;;;;;;4957033;28;20047;-75
2022/10/18 11:15:14;;;;;;;9.77;1.60;;;14.90;99.90;;;;;;4972932;28;20043;-75
2022/10/18 11:18:03;;;;;;;11.50;1.70;;;14.90;99.90;;;;;;4983113;28;20046;-75
2022/10/18 11:20:39;;;;;;;11.10;1.90;;;15.00;99.90;;;;;;4992437;28;20369;-75
2022/10/18 11:23:09;;;;;;;14.85;2.00;;;14.90;99.90;;;;;;4973284;28;20054;-75
2022/10/18 11:25:46;;;;;;;8.60;1.83;;;14.80;99.90;;;;;;4975899;28;20073;-75
2022/10/18 11:28:40;;;;;;;9.95;1.77;;;14.90;99.90;;;;;;4992191;28;20049;-75
2022/10/18 11:31:23;;;;;;;8.38;1.67;;;14.80;99.90;;;;;;4992130;28;20034;-75
2022/10/18 11:34:06;;;;;;;11.63;1.65;;;15.00;99.90;;;;;;5008696;28;20496;-75
2022/10/18 11:37:06;;;;;;;9.55;1.35;;;15.00;99.90;;;;;;4976221;28;20089;-70
2022/10/18 11:39:50;;;;;;;12.05;1.50;;;15.10;99.90;;;;;;5001083;28;20045;-76
2022/10/18 11:42:28;;;;;;;8.73;1.60;;;15.10;99.90;;;;;;5020465;28;20050;-76
2022/10/18 11:45:09;;;;;;;9.63;1.38;;;15.10;99.90;;;;;;4990548;28;20042;-76
2022/10/18 11:47:48;;;;;;;10.48;1.98;;;15.10;99.90;;;;;;4983114;28;20125;-76
2022/10/18 11:50:25;;;;;;;11.90;1.92;;;15.10;99.90;;;;;;4976356;28;20046;-76
2022/10/18 11:53:21;;;;;;;10.07;1.83;;;15.20;99.90;;;;;;4988406;28;20082;-76
2022/10/18 11:55:56;;;;;;;9.02;1.63;;;15.30;99.90;;;;;;4993590;28;20404;-76
2022/10/18 11:58:40;;;;;;;11.20;1.90;;;15.40;99.90;;;;;;5005424;28;20070;-76
2022/10/18 12:01:23;;;;;;;12.25;1.70;;;15.40;99.90;;;;;;4993564;28;20046;-76
2022/10/18 12:04:03;;;;;;;11.38;1.70;;;15.30;99.90;;;;;;5011451;28;20045;-76
2022/10/18 12:06:34;;;;;;;9.23;1.30;;;15.20;99.90;;;;;;4978451;28;20518;-76
2022/10/18 12:09:12;;;;;;;7.22;1.52;;;15.20;99.90;;;;;;4995344;28;20049;-76
2022/10/18 12:11:47;;;;;;;11.00;1.40;;;15.10;99.90;;;;;;4995122;28;20096;-76
2022/10/18 12:14:25;;;;;;;9.73;1.73;;;15.00;99.90;;;;;;4995107;28;20034;-76
2022/10/18 12:16:55;;;;;;;8.18;1.45;;;15.00;99.90;;;;;;5019244;28;20138;-77
2022/10/18 12:19:25;;;;;;;11.55;1.67;;;14.90;99.90;;;;;;4991749;28;20049;-76
2022/10/18 12:21:52;;;;;;;7.95;1.20;;;14.90;99.90;;;;;;4984255;28;20041;-76
2022/10/18 12:24:26;;;;;;;8.93;1.58;;;14.80;99.90;;;;;;5008772;28;20526;-76
2022/10/18 12:26:57;;;;;;;9.65;1.40;;;14.80;99.90;;;;;;4994345;28;20038;-76
2022/10/18 12:29:52;;;;;;;8.75;1.60;;;14.70;99.90;;;;;;4995224;28;20579;-76
2022/10/18 12:32:24;;;;;;;8.05;1.30;;;14.70;99.90;;;;;;4993075;28;20046;-76
2022/10/18 12:34:53;;;;;;;11.63;1.73;;;14.70;99.90;;;;;;4993833;28;20046;-76
2022/10/18 12:37:37;;;;;;;10.35;1.38;;;14.70;99.90;;;;;;4993652;28;20129;-76
2022/10/18 12:40:37;;;;;;;9.50;1.48;;;14.70;99.90;;;;;;4994262;28;20101;-76
2022/10/18 12:43:09;;;;;;;10.90;1.65;;;14.90;99.90;;;;;;4991486;28;20049;-77
2022/10/18 12:45:52;;;;;;;9.88;1.70;;;15.00;99.90;;;;;;4992875;28;20061;-76
2022/10/18 12:48:28;;;;;;;10.65;2.25;;;15.10;99.90;;;;;;4975273;28;20102;-76
2022/10/18 12:51:06;;;;;;;8.45;1.50;;;15.20;99.90;;;;;;5007288;28;20046;-76
2022/10/18 12:53:33;;;;;;;10.15;1.60;;;15.30;99.90;;;;;;4990583;28;20500;-76
2022/10/18 12:56:26;;;;;;;7.35;1.40;;;15.30;99.90;;;;;;4975639;28;20034;-77